Time;durP1;ratioP1;P1;durP2;ratioP2;P2;SDS_P1;SDS_P2;PMS_P1;PMS_P2;Temp;Humidity;BMP_temperature;BMP_pressure;BME280_temperature;BME280_humidity;BME280_pressure;Samples;Min_cycle;Max_cycle;Signal;HPM_P1;HPM_P2
2022/03/17 00:01:41;;;;;;;35.23;26.63;;;;;;;;;;4961518;28;20447;-94
2022/03/17 00:04:10;;;;;;;35.20;26.53;;;;;;;;;;4961461;28;20459;-93
2022/03/17 00:06:37;;;;;;;34.40;26.47;;;;;;;;;;4961134;28;20473;-93
2022/03/17 00:09:06;;;;;;;34.47;26.97;;;;;;;;;;4961182;28;20997;-94
2022/03/17 00:11:35;;;;;;;34.30;27.80;;;;;;;;;;4959995;28;20475;-96
2022/03/17 00:14:02;;;;;;;34.80;26.60;;;;;;;;;;4960960;29;20435;-93
2022/03/17 00:16:31;;;;;;;31.37;25.47;;;;;;;;;;4961068;28;20467;-93
2022/03/17 00:18:58;;;;;;;33.90;26.37;;;;;;;;;;4961476;28;20467;-94
2022/03/17 00:21:27;;;;;;;31.43;25.17;;;;;;;;;;4960617;28;20454;-93
2022/03/17 00:23:54;;;;;;;35.07;26.30;;;;;;;;;;4961035;28;20462;-92
2022/03/17 00:26:21;;;;;;;35.60;26.33;;;;;;;;;;4957030;29;20451;-91
2022/03/17 00:28:48;;;;;;;32.80;24.97;;;;;;;;;;4959964;28;20498;-92
2022/03/17 00:31:17;;;;;;;36.77;26.77;;;;;;;;;;4957238;29;20524;-93
2022/03/17 00:33:44;;;;;;;32.67;25.30;;;;;;;;;;4960273;28;20455;-92
2022/03/17 00:36:13;;;;;;;34.83;25.67;;;;;;;;;;4968106;28;20491;-94
2022/03/17 00:38:42;;;;;;;35.23;26.87;;;;;;;;;;4979966;28;20439;-93
2022/03/17 00:41:09;;;;;;;37.00;27.90;;;;;;;;;;4965978;28;20844;-93
2022/03/17 00:43:36;;;;;;;34.77;26.37;;;;;;;;;;4960032;28;20465;-93
2022/03/17 00:46:04;;;;;;;36.13;27.40;;;;;;;;;;4960308;29;20485;-94
2022/03/17 00:48:31;;;;;;;34.67;27.77;;;;;;;;;;4960462;28;20483;-93
2022/03/17 00:50:58;;;;;;;37.90;28.53;;;;;;;;;;4960456;28;20458;-93
2022/03/17 00:53:25;;;;;;;36.17;26.70;;;;;;;;;;4960655;28;20459;-93
2022/03/17 00:55:54;;;;;;;36.00;26.33;;;;;;;;;;4961355;28;20459;-92
2022/03/17 00:58:22;;;;;;;36.90;27.67;;;;;;;;;;4959085;28;20466;-92
2022/03/17 01:00:49;;;;;;;36.47;28.17;;;;;;;;;;4958167;29;20815;-93
2022/03/17 01:03:17;;;;;;;34.70;25.97;;;;;;;;;;4959745;28;20466;-93
2022/03/17 01:05:44;;;;;;;37.43;27.13;;;;;;;;;;4959293;28;20451;-93
2022/03/17 01:08:12;;;;;;;36.17;27.50;;;;;;;;;;4939925;29;20491;-94
2022/03/17 01:10:42;;;;;;;35.37;26.87;;;;;;;;;;4935442;29;20459;-91
2022/03/17 01:13:11;;;;;;;38.93;27.87;;;;;;;;;;4939860;29;20452;-93
2022/03/17 01:15:38;;;;;;;36.33;27.10;;;;;;;;;;4940662;29;20468;-94
2022/03/17 01:18:05;;;;;;;33.43;25.33;;;;;;;;;;4940535;29;20460;-92
2022/03/17 01:20:33;;;;;;;36.50;26.87;;;;;;;;;;4940699;29;20467;-93
2022/03/17 01:23:00;;;;;;;38.27;27.43;;;;;;;;;;4940236;29;20491;-93
2022/03/17 01:25:27;;;;;;;33.50;25.20;;;;;;;;;;4940906;29;20492;-92
2022/03/17 01:27:54;;;;;;;36.87;26.57;;;;;;;;;;4939974;29;20811;-93
2022/03/17 01:30:23;;;;;;;35.97;25.80;;;;;;;;;;4940072;29;20484;-93
2022/03/17 01:32:50;;;;;;;35.10;26.37;;;;;;;;;;4939940;29;20539;-93
2022/03/17 01:35:17;;;;;;;38.00;25.20;;;;;;;;;;4939765;29;20463;-93
2022/03/17 01:37:44;;;;;;;32.10;24.87;;;;;;;;;;4940296;29;20467;-91
2022/03/17 01:40:12;;;;;;;33.50;25.60;;;;;;;;;;4935039;29;20456;-92
2022/03/17 01:42:40;;;;;;;32.47;24.50;;;;;;;;;;4935288;29;20454;-92
2022/03/17 01:45:09;;;;;;;35.33;25.93;;;5.70;99.90;;;;;;4939297;29;20511;-92
2022/03/17 01:47:38;;;;;;;38.10;25.03;;;;;;;;;;4939729;29;20456;-92
2022/03/17 01:50:08;;;;;;;38.10;26.57;;;5.60;99.90;;;;;;4939726;29;21022;-93
2022/03/17 01:52:35;;;;;;;33.57;25.20;;;;;;;;;;4939179;29;20464;-94
2022/03/17 01:55:03;;;;;;;37.77;27.20;;;;;;;;;;4939256;29;20464;-94
2022/03/17 01:57:31;;;;;;;36.07;26.43;;;;;;;;;;4938445;29;20468;-93
2022/03/17 01:59:59;;;;;;;34.70;25.00;;;;;;;;;;4940224;29;20827;-94
2022/03/17 02:02:26;;;;;;;34.73;25.33;;;;;;;;;;4940226;29;20456;-92
2022/03/17 02:04:55;;;;;;;34.87;26.03;;;;;;;;;;4939121;29;20548;-92
2022/03/17 02:07:23;;;;;;;31.10;25.07;;;;;;;;;;4939155;29;20456;-93
2022/03/17 02:09:50;;;;;;;35.20;26.43;;;;;;;;;;4935214;29;20495;-92
2022/03/17 02:15:04;;;;;;;35.97;25.50;;;5.50;99.90;;;;;;4938694;29;20489;-91
2022/03/17 02:17:32;;;;;;;36.37;26.40;;;;;;;;;;4938852;29;20935;-93
2022/03/17 02:20:01;;;;;;;35.47;25.30;;;;;;;;;;4938775;29;20469;-92
2022/03/17 02:22:29;;;;;;;45.30;26.93;;;5.60;99.90;;;;;;4938871;29;20483;-92
2022/03/17 02:27:46;;;;;;;37.30;24.47;;;5.60;99.90;;;;;;4938071;29;20560;-91
2022/03/17 02:30:17;;;;;;;33.97;24.10;;;5.60;99.90;;;;;;4934078;29;20499;-93
2022/03/17 02:32:45;;;;;;;35.00;24.20;;;;;;;;;;4934388;29;20462;-91
2022/03/17 02:35:13;;;;;;;40.10;25.93;;;5.70;99.90;;;;;;4938981;29;20460;-92
2022/03/17 02:37:41;;;;;;;39.07;25.67;;;;;;;;;;4938799;29;20463;-92
2022/03/17 02:40:12;;;;;;;30.30;24.23;;;5.70;99.90;;;;;;4938702;29;20978;-91
2022/03/17 02:42:39;;;;;;;40.00;25.40;;;;;;;;;;4932573;29;20453;-93
2022/03/17 02:45:10;;;;;;;32.17;24.27;;;;;;;;;;4938443;29;20460;-92
2022/03/17 02:47:38;;;;;;;39.53;25.70;;;;;;;;;;4937981;29;20500;-93
2022/03/17 02:50:05;;;;;;;38.67;27.17;;;;;;;;;;4938232;29;20494;-93
2022/03/17 02:52:32;;;;;;;33.17;24.33;;;;;;;;;;4938201;29;20453;-91
2022/03/17 02:55:00;;;;;;;32.37;24.77;;;;;;;;;;4938312;29;20814;-94
2022/03/17 02:57:28;;;;;;;33.13;24.97;;;;;;;;;;4937436;29;20460;-93
2022/03/17 02:59:58;;;;;;;33.07;24.47;;;;;;;;;;4937928;29;20539;-94
2022/03/17 03:02:26;;;;;;;35.03;25.13;;;;;;;;;;4937571;29;20967;-92
2022/03/17 03:04:53;;;;;;;35.60;25.97;;;;;;;;;;4934797;29;20463;-92
2022/03/17 03:07:20;;;;;;;33.80;25.20;;;;;;;;;;4937693;29;20545;-92
2022/03/17 03:09:47;;;;;;;34.67;24.17;;;;;;;;;;4937666;29;20475;-92
2022/03/17 03:12:14;;;;;;;33.60;23.87;;;;;;;;;;4937942;29;21002;-91
2022/03/17 03:14:43;;;;;;;37.03;25.57;;;;;;;;;;4938393;29;20452;-92
2022/03/17 03:17:10;;;;;;;35.23;24.93;;;;;;;;;;4937944;29;20451;-94
2022/03/17 03:19:37;;;;;;;35.17;25.30;;;;;;;;;;4937682;29;20462;-93
2022/03/17 03:22:05;;;;;;;36.03;25.53;;;;;;;;;;4936863;29;20498;-94
2022/03/17 03:24:33;;;;;;;33.43;26.40;;;;;;;;;;4938118;29;20448;-93
2022/03/17 03:27:00;;;;;;;33.93;24.20;;;;;;;;;;4936860;29;20962;-92
2022/03/17 03:29:28;;;;;;;32.43;24.67;;;;;;;;;;4937521;29;21006;-92
2022/03/17 03:31:58;;;;;;;33.80;24.90;;;6.00;99.90;;;;;;4934407;29;20463;-94
2022/03/17 03:34:26;;;;;;;33.90;25.40;;;;;;;;;;4938018;29;20458;-92
2022/03/17 03:39:38;;;;;;;36.17;25.90;;;;;;;;;;4937174;29;20448;-92
2022/03/17 03:42:07;;;;;;;33.97;25.80;;;6.00;99.90;;;;;;4937318;29;20979;-92
2022/03/17 03:44:34;;;;;;;30.93;23.67;;;;;;;;;;4934412;29;20572;-92
2022/03/17 03:47:02;;;;;;;33.90;24.83;;;;;;;;;;4937231;29;20958;-91
2022/03/17 03:49:30;;;;;;;31.10;23.13;;;;;;;;;;4937177;29;20487;-94
2022/03/17 03:51:57;;;;;;;35.40;27.20;;;;;;;;;;4937349;29;20447;-94
2022/03/17 03:54:25;;;;;;;30.30;23.97;;;;;;;;;;4935372;29;20491;-93
2022/03/17 03:56:53;;;;;;;31.77;25.17;;;;;;;;;;4936976;29;20466;-94
2022/03/17 03:59:21;;;;;;;34.63;24.10;;;6.30;99.90;;;;;;4937140;29;20472;-93
2022/03/17 04:01:50;;;;;;;34.43;26.43;;;6.40;99.90;;;;;;4937425;29;20452;-94
2022/03/17 04:04:19;;;;;;;33.10;25.07;;;;;;;;;;4936990;29;20424;-93
2022/03/17 04:06:47;;;;;;;34.23;24.50;;;6.40;99.90;;;;;;4937375;29;20463;-93
2022/03/17 04:09:15;;;;;;;34.80;26.30;;;;;;;;;;4933480;29;20456;-92
2022/03/17 04:11:42;;;;;;;37.60;26.70;;;;;;;;;;4934717;29;20488;-94
2022/03/17 04:14:09;;;;;;;39.27;26.97;;;;;;;;;;4937450;29;20459;-94
2022/03/17 04:16:37;;;;;;;35.83;26.73;;;;;;;;;;4934052;29;20468;-93
2022/03/17 04:19:04;;;;;;;33.70;26.13;;;;;;;;;;4936837;29;20975;-92
2022/03/17 04:21:33;;;;;;;39.10;28.17;;;;;;;;;;4937067;29;20456;-92
2022/03/17 04:24:00;;;;;;;37.20;27.60;;;6.50;99.90;;;;;;4937059;29;20975;-92
2022/03/17 04:26:28;;;;;;;36.77;28.13;;;;;;;;;;4932597;29;20460;-94
2022/03/17 04:28:56;;;;;;;38.97;29.30;;;;;;;;;;4936826;29;20464;-93
2022/03/17 04:31:23;;;;;;;38.73;28.70;;;;;;;;;;4936815;29;20527;-93
2022/03/17 04:33:50;;;;;;;38.57;27.13;;;;;;;;;;4939885;29;20473;-93
2022/03/17 04:36:18;;;;;;;37.30;29.67;;;;;;;;;;4940480;29;20466;-93
2022/03/17 04:38:47;;;;;;;37.80;26.83;;;;;;;;;;4940139;29;20452;-93
2022/03/17 04:41:14;;;;;;;35.23;26.27;;;;;;;;;;4940813;29;20947;-93
2022/03/17 04:43:41;;;;;;;38.23;28.07;;;;;;;;;;4939639;29;20456;-92
2022/03/17 04:46:09;;;;;;;37.03;27.60;;;;;;;;;;4940402;29;20458;-92
2022/03/17 04:48:36;;;;;;;34.50;25.70;;;;;;;;;;4937603;29;20464;-93
2022/03/17 04:51:03;;;;;;;37.47;27.17;;;;;;;;;;4940317;29;20484;-93
2022/03/17 04:53:32;;;;;;;37.10;28.07;;;;;;;;;;4940384;29;20456;-92
2022/03/17 04:56:03;;;;;;;35.80;26.10;;;6.50;99.90;;;;;;4940043;29;20474;-93
2022/03/17 04:58:30;;;;;;;33.47;25.70;;;;;;;;;;4939409;29;20464;-94
2022/03/17 05:00:58;;;;;;;35.97;25.80;;;;;;;;;;4939884;29;21671;-91
2022/03/17 05:03:25;;;;;;;30.93;23.17;;;;;;;;;;4940207;29;20494;-93
2022/03/17 05:05:53;;;;;;;34.17;25.80;;;;;;;;;;4939822;29;20976;-94
2022/03/17 05:08:21;;;;;;;35.37;25.07;;;;;;;;;;4939832;29;20539;-94
2022/03/17 05:10:48;;;;;;;37.00;27.00;;;;;;;;;;4939352;29;20522;-93
2022/03/17 05:13:17;;;;;;;32.93;25.00;;;6.30;99.90;;;;;;4939095;29;20460;-92
2022/03/17 05:15:46;;;;;;;33.00;24.63;;;;;;;;;;4935037;29;20592;-93
2022/03/17 05:18:13;;;;;;;36.00;26.30;;;;;;;;;;4933459;29;20464;-91
2022/03/17 05:20:42;;;;;;;33.60;24.40;;;6.30;99.90;;;;;;4939640;29;20941;-92
2022/03/17 05:23:10;;;;;;;33.00;25.63;;;;;;;;;;4935557;29;20487;-91
2022/03/17 05:25:38;;;;;;;33.97;26.77;;;;;;;;;;4939844;29;20456;-92
2022/03/17 05:28:05;;;;;;;36.80;26.53;;;;;;;;;;4939554;29;20460;-95
2022/03/17 05:30:34;;;;;;;37.33;27.70;;;;;;;;;;4940027;29;20499;-92
2022/03/17 05:33:02;;;;;;;39.53;28.97;;;;;;;;;;4939528;29;20519;-94
2022/03/17 05:35:29;;;;;;;36.03;28.90;;;;;;;;;;4939845;29;20952;-93
2022/03/17 05:37:56;;;;;;;40.03;27.80;;;;;;;;;;4939338;29;20520;-93
2022/03/17 05:40:24;;;;;;;38.63;29.83;;;;;;;;;;4939540;29;20440;-92
2022/03/17 05:42:53;;;;;;;42.87;27.73;;;6.50;99.90;;;;;;4936032;29;20507;-92
2022/03/17 05:45:21;;;;;;;35.83;27.43;;;6.50;99.90;;;;;;4938657;29;20456;-92
2022/03/17 05:47:50;;;;;;;36.87;27.77;;;;;;;;;;4939358;29;20936;-92
2022/03/17 05:50:20;;;;;;;41.13;30.80;;;6.40;99.90;;;;;;4938943;29;20515;-91
2022/03/17 05:52:47;;;;;;;41.80;29.80;;;;;;;;;;4935024;29;20527;-93
2022/03/17 05:55:16;;;;;;;36.60;28.57;;;6.50;99.90;;;;;;4936082;29;20464;-93
2022/03/17 05:57:45;;;;;;;41.83;29.43;;;6.50;99.90;;;;;;4934433;29;20448;-91
2022/03/17 06:00:14;;;;;;;38.40;29.37;;;6.50;99.90;;;;;;4934580;29;20440;-94
2022/03/17 06:02:41;;;;;;;43.33;29.67;;;;;;;;;;4939328;29;20459;-91
2022/03/17 06:05:11;;;;;;;41.80;27.70;;;6.60;99.90;;;;;;4934185;29;20448;-93
2022/03/17 06:07:39;;;;;;;40.60;29.30;;;;;;;;;;4939342;29;20452;-93
2022/03/17 06:10:07;;;;;;;49.37;30.50;;;;;;;;;;4937419;29;20488;-93
2022/03/17 06:12:34;;;;;;;48.00;30.93;;;;;;;;;;4938793;29;20467;-92
2022/03/17 06:15:02;;;;;;;43.93;29.10;;;6.70;99.90;;;;;;4935543;29;20483;-93
2022/03/17 06:17:39;;;;;;;38.00;28.17;;;;;;;;;;4934708;29;20510;-93
2022/03/17 06:20:09;;;;;;;39.47;29.60;;;6.50;99.90;;;;;;4938522;29;20463;-91
2022/03/17 06:22:38;;;;;;;41.33;30.33;;;;;;;;;;4934915;29;20516;-94
2022/03/17 06:25:06;;;;;;;42.47;30.97;;;;;;;;;;4938679;29;20456;-93
2022/03/17 06:27:34;;;;;;;39.40;29.87;;;;;;;;;;4938014;29;20466;-91
2022/03/17 06:30:01;;;;;;;44.97;29.80;;;;;;;;;;4938682;29;20948;-94
2022/03/17 06:32:29;;;;;;;42.23;30.00;;;;;;;;;;4935421;29;20460;-93
2022/03/17 06:34:56;;;;;;;42.60;30.33;;;;;;;;;;4935317;29;20539;-95
2022/03/17 06:37:23;;;;;;;41.53;30.40;;;;;;;;;;4938249;29;20470;-94
2022/03/17 06:39:53;;;;;;;40.97;29.23;;;;;;;;;;4937974;29;20528;-94
2022/03/17 06:42:20;;;;;;;38.70;29.57;;;;;;;;;;4937860;29;20464;-93
2022/03/17 06:44:47;;;;;;;44.27;29.03;;;;;;;;;;4937841;29;20443;-91
2022/03/17 06:47:15;;;;;;;35.00;27.40;;;;;;;;;;4938129;29;20816;-92
2022/03/17 06:49:42;;;;;;;35.80;25.83;;;;;;;;;;4938457;29;20459;-92
2022/03/17 06:52:09;;;;;;;39.13;28.50;;;;;;;;;;4938589;29;20496;-93
2022/03/17 06:54:36;;;;;;;42.90;28.40;;;;;;;;;;4938043;29;20492;-91
2022/03/17 06:57:05;;;;;;;37.90;28.33;;;;;;;;;;4934451;29;20824;-93
2022/03/17 06:59:33;;;;;;;41.53;29.60;;;;;;;;;;4938516;29;20537;-95
2022/03/17 07:02:00;;;;;;;39.60;29.63;;;;;;;;;;4938893;29;20660;-94
2022/03/17 07:04:29;;;;;;;37.97;29.17;;;;;;;;;;4942189;29;20460;-93
2022/03/17 07:06:57;;;;;;;42.27;31.57;;;;;;;;;;4943045;29;20464;-92
2022/03/17 07:09:24;;;;;;;42.20;31.07;;;;;;;;;;4947371;29;20485;-95
2022/03/17 07:11:52;;;;;;;42.30;30.43;;;;;;;;;;4957371;29;20487;-93
2022/03/17 07:14:21;;;;;;;41.50;30.20;;;7.40;99.90;;;;;;4959191;29;20544;-92
2022/03/17 07:16:48;;;;;;;40.57;30.20;;;;;;;;;;4943863;29;20451;-93
2022/03/17 07:19:15;;;;;;;43.00;30.43;;;;;;;;;;4938583;29;20469;-93
2022/03/17 07:21:43;;;;;;;39.50;29.30;;;;;;;;;;4934449;29;20492;-94
2022/03/17 07:24:10;;;;;;;41.67;30.30;;;;;;;;;;4936871;29;20912;-92
2022/03/17 07:26:37;;;;;;;42.40;30.73;;;;;;;;;;4937477;29;20462;-93
2022/03/17 07:29:06;;;;;;;41.80;30.00;;;;;;;;;;4936480;29;20500;-94
2022/03/17 07:31:35;;;;;;;41.70;30.67;;;;;;;;;;4938340;29;20491;-93
2022/03/17 07:34:02;;;;;;;39.60;28.70;;;;;;;;;;4936387;29;20464;-93
2022/03/17 07:36:29;;;;;;;38.67;30.37;;;;;;;;;;4937734;29;20462;-92
2022/03/17 07:38:57;;;;;;;40.20;30.37;;;;;;;;;;4937567;29;20492;-93
2022/03/17 07:41:24;;;;;;;38.73;29.70;;;;;;;;;;4940052;29;20460;-93
2022/03/17 07:43:51;;;;;;;39.83;29.60;;;;;;;;;;4937685;29;20444;-94
2022/03/17 07:46:19;;;;;;;40.90;31.07;;;;;;;;;;4937382;29;20448;-89
2022/03/17 07:48:49;;;;;;;45.13;30.93;;;;;;;;;;4938317;29;20456;-93
2022/03/17 07:51:16;;;;;;;45.07;31.80;;;;;;;;;;4936424;29;20508;-90
2022/03/17 07:53:44;;;;;;;38.93;30.27;;;;;;;;;;4934525;29;20471;-91
2022/03/17 07:56:13;;;;;;;35.37;29.43;;;8.70;99.90;;;;;;4934542;29;20519;-88
2022/03/17 07:58:40;;;;;;;39.00;29.27;;;8.50;99.90;;;;;;4935119;29;20802;-88
2022/03/17 08:01:07;;;;;;;36.90;29.37;;;;;;;;;;4935941;29;20460;-89
2022/03/17 08:03:35;;;;;;;45.00;30.73;;;;;;;;;;4935529;29;20507;-90
2022/03/17 08:06:03;;;;;;;42.87;29.70;;;8.40;99.90;;;;;;4933025;29;20455;-88
2022/03/17 08:08:30;;;;;;;40.50;31.10;;;;;;;;;;4935494;29;20476;-91
2022/03/17 08:10:58;;;;;;;40.03;30.43;;;;;;;;;;4937013;29;20491;-88
2022/03/17 08:13:26;;;;;;;37.23;28.47;;;;;;;;;;4939301;29;20448;-93
2022/03/17 08:15:54;;;;;;;39.13;29.83;;;;;;;;;;4938061;29;20491;-91
2022/03/17 08:18:22;;;;;;;35.67;27.37;;;;;;;;;;4946001;29;20483;-94
2022/03/17 08:20:52;;;;;;;35.63;26.50;;;;;;;;;;4953715;29;20468;-94
2022/03/17 08:23:24;;;;;;;40.07;29.43;;;8.50;99.90;;;;;;4944979;29;20576;-93
2022/03/17 08:25:52;;;;;;;42.00;28.30;;;8.70;99.90;;;;;;4885868;29;20828;-94
2022/03/17 08:28:24;;;;;;;34.63;27.50;;;;;;;;;;4883628;29;20459;-93
2022/03/17 08:30:54;;;;;;;35.43;27.50;;;;;;;;;;4888407;29;20486;-95
2022/03/17 08:33:21;;;;;;;36.33;26.53;;;;;;;;;;4886896;29;20604;-93
2022/03/17 08:35:48;;;;;;;40.40;28.13;;;;;;;;;;4883441;29;20482;-95
2022/03/17 08:38:26;;;;;;;35.13;26.93;;;;;;;;;;4933465;23;20496;-93
2022/03/17 08:40:56;;;;;;;36.33;27.30;;;;;;;;;;5002035;28;20461;-95
2022/03/17 08:43:23;;;;;;;33.07;26.13;;;;;;;;;;4999777;28;20445;-94
2022/03/17 08:51:25;;;;;;;32.87;25.90;;;;;;;;;;4979679;28;20485;-93
2022/03/17 08:53:53;;;;;;;36.10;27.07;;;;;;;;;;4978353;28;20465;-94
2022/03/17 08:56:21;;;;;;;29.97;24.40;;;;;;;;;;4985300;28;20537;-94
2022/03/17 08:58:49;;;;;;;35.10;27.00;;;;;;;;;;4985219;28;20549;-95
2022/03/17 09:01:16;;;;;;;34.63;26.47;;;;;;;;;;4984118;28;21037;-95
2022/03/17 09:03:47;;;;;;;39.17;28.60;;;;;;;;;;4980396;28;20450;-93
2022/03/17 09:06:14;;;;;;;37.57;26.30;;;;;;;;;;4983957;28;20506;-96
2022/03/17 09:08:44;;;;;;;34.20;26.87;;;;;;;;;;4983424;28;20482;-94
2022/03/17 09:11:15;;;;;;;33.77;25.87;;;;;;;;;;4981057;28;20486;-94
2022/03/17 09:13:46;;;;;;;35.17;28.50;;;;;;;;;;4980888;28;20459;-91
2022/03/17 09:16:14;;;;;;;33.10;24.80;;;;;;;;;;4980694;28;20461;-92
2022/03/17 09:18:42;;;;;;;38.23;27.70;;;;;;;;;;4978318;28;20873;-93
2022/03/17 09:21:09;;;;;;;33.30;25.57;;;;;;;;;;5001071;28;20461;-92
2022/03/17 09:23:37;;;;;;;33.77;25.17;;;;;;;;;;4999557;28;20457;-93
2022/03/17 09:26:04;;;;;;;33.27;26.70;;;;;;;;;;5001557;28;20937;-93
2022/03/17 09:29:07;;;;;;;32.90;25.97;;;9.30;99.90;;;;;;4999981;28;20821;-93
2022/03/17 09:31:35;;;;;;;31.70;24.10;;;;;;;;;;4997495;28;20859;-92
2022/03/17 09:34:03;;;;;;;31.57;24.77;;;;;;;;;;5000050;28;20462;-93
2022/03/17 09:36:30;;;;;;;32.07;25.57;;;;;;;;;;5000702;28;20457;-94
2022/03/17 09:41:42;;;;;;;36.93;27.27;;;;;;;;;;5001679;28;20428;-93
2022/03/17 09:44:14;;;;;;;33.40;24.90;;;;;;;;;;5000443;28;20471;-93
2022/03/17 09:46:43;;;;;;;34.20;26.10;;;10.00;99.90;;;;;;5001140;28;20524;-94
2022/03/17 09:49:11;;;;;;;35.87;27.00;;;;;;;;;;5002502;28;20484;-94
2022/03/17 09:54:33;;;;;;;31.50;23.50;;;10.10;99.90;;;;;;5005713;28;20441;-92
2022/03/17 09:57:01;;;;;;;31.30;26.30;;;10.10;99.90;;;;;;4994353;28;20488;-86
2022/03/17 09:59:30;;;;;;;34.83;26.20;;;10.20;99.90;;;;;;4999518;28;20475;-89
2022/03/17 10:01:58;;;;;;;29.40;24.30;;;;;;;;;;4995533;28;20446;-89
2022/03/17 10:04:25;;;;;;;35.83;24.70;;;;;;;;;;4990396;28;20501;-91
2022/03/17 10:06:53;;;;;;;31.00;24.70;;;;;;;;;;4987038;28;20441;-92
2022/03/17 10:09:20;;;;;;;33.00;26.00;;;;;;;;;;4995579;28;20461;-90
2022/03/17 10:12:01;;;;;;;30.93;23.27;;;10.30;99.90;;;;;;4994503;28;20500;-90
2022/03/17 10:14:48;;;;;;;33.43;25.00;;;10.20;99.90;;;;;;4995486;28;20445;-90
2022/03/17 10:17:32;;;;;;;29.47;24.67;;;10.50;99.90;;;;;;4996038;28;20442;-89
2022/03/17 10:20:13;;;;;;;33.90;25.20;;;10.50;99.90;;;;;;4995326;28;20450;-87
2022/03/17 10:22:44;;;;;;;33.23;24.90;;;10.70;99.90;;;;;;4995087;28;20480;-90
2022/03/17 10:25:14;;;;;;;32.00;24.30;;;10.70;99.90;;;;;;4995999;28;20828;-91
2022/03/17 10:27:41;;;;;;;33.50;23.60;;;;;;;;;;4994140;28;20524;-86
2022/03/17 10:30:11;;;;;;;34.63;23.90;;;11.00;99.90;;;;;;4994215;28;20465;-89
2022/03/17 10:32:38;;;;;;;32.87;24.97;;;;;;;;;;4995462;28;20497;-91
2022/03/17 10:35:09;;;;;;;30.83;24.37;;;11.30;99.90;;;;;;4996494;28;20487;-91
2022/03/17 10:37:37;;;;;;;31.70;25.10;;;11.50;99.90;;;;;;4995403;28;20449;-89
2022/03/17 10:40:11;;;;;;;32.87;25.50;;;11.40;99.90;;;;;;4992084;28;20508;-89
2022/03/17 10:42:39;;;;;;;35.30;26.43;;;;;;;;;;4993699;28;20957;-91
2022/03/17 10:45:10;;;;;;;39.13;24.93;;;11.30;99.90;;;;;;4994535;28;20456;-87
2022/03/17 10:47:38;;;;;;;34.17;25.57;;;11.30;99.90;;;;;;4994605;28;20941;-91
2022/03/17 10:50:11;;;;;;;35.90;25.47;;;11.50;99.90;;;;;;4994907;28;20449;-90
2022/03/17 10:52:52;;;;;;;34.47;24.33;;;11.20;99.90;;;;;;4994380;28;20555;-89
2022/03/17 10:55:22;;;;;;;36.30;23.70;;;11.60;99.90;;;;;;4992302;28;21012;-88
2022/03/17 10:57:49;;;;;;;31.00;22.00;;;11.70;99.90;;;;;;4986925;28;20454;-89
2022/03/17 11:00:34;;;;;;;32.77;22.53;;;11.60;99.90;;;;;;4996679;28;20438;-90
2022/03/17 11:03:01;;;;;;;32.90;21.90;;;;;;;;;;4973611;28;20445;-88
2022/03/17 11:05:28;;;;;;;33.47;22.67;;;11.70;99.90;;;;;;4966891;28;20451;-89
2022/03/17 11:07:57;;;;;;;33.87;22.43;;;11.60;99.90;;;;;;4972879;28;20561;-89
2022/03/17 11:10:25;;;;;;;34.10;22.27;;;11.60;99.90;;;;;;4972852;28;20451;-89
2022/03/17 11:12:52;;;;;;;29.83;23.13;;;;;;;;;;4971853;28;20897;-89
2022/03/17 11:15:28;;;;;;;31.83;22.20;;;11.80;99.90;;;;;;4978431;28;20450;-89
2022/03/17 11:18:02;;;;;;;32.70;23.83;;;11.50;99.90;;;;;;4994654;28;20457;-89
2022/03/17 11:20:30;;;;;;;27.47;21.63;;;11.50;99.90;;;;;;4994764;28;20445;-91
2022/03/17 11:23:10;;;;;;;31.80;23.30;;;11.30;99.90;;;;;;4991801;28;20465;-91
2022/03/17 11:25:38;;;;;;;31.23;21.73;;;;;;;;;;4994576;28;20511;-91
2022/03/17 11:28:06;;;;;;;35.00;24.33;;;11.40;99.90;;;;;;4985537;28;20451;-90
2022/03/17 11:30:43;;;;;;;35.70;22.70;;;11.40;99.90;;;;;;4998398;28;20457;-90
2022/03/17 11:33:24;;;;;;;35.77;23.97;;;11.30;99.90;;;;;;4992303;28;20891;-89
2022/03/17 11:35:55;;;;;;;34.70;23.67;;;11.40;99.90;;;;;;4995871;28;20971;-90
2022/03/17 11:38:27;;;;;;;38.43;24.03;;;11.20;99.90;;;;;;4994503;28;20480;-88
2022/03/17 11:41:10;;;;;;;34.33;24.97;;;11.10;99.90;;;;;;4994592;28;20441;-89
2022/03/17 11:44:03;;;;;;;32.67;24.70;;;11.20;99.90;;;;;;4996884;28;20453;-88
2022/03/17 11:46:40;;;;;;;34.73;23.97;;;11.00;99.90;;;;;;4998715;28;20445;-88
2022/03/17 11:49:25;;;;;;;29.87;23.17;;;11.10;99.90;;;;;;4998319;28;20448;-89
2022/03/17 11:52:00;;;;;;;35.27;23.93;;;10.80;99.90;;;;;;4987947;28;20485;-91
2022/03/17 11:54:28;;;;;;;28.80;21.73;;;;;;;;;;4998116;28;20452;-88
2022/03/17 11:56:58;;;;;;;37.37;26.17;;;10.70;99.90;;;;;;4997317;28;20991;-88
2022/03/17 11:59:30;;;;;;;36.87;26.50;;;10.80;99.90;;;;;;4994926;28;20496;-90
2022/03/17 12:01:59;;;;;;;33.47;26.10;;;11.00;99.90;;;;;;4998039;28;20515;-88
2022/03/17 12:04:30;;;;;;;34.00;25.03;;;10.70;99.90;;;;;;4998471;28;20487;-92
2022/03/17 12:07:09;;;;;;;34.97;26.10;;;10.70;99.90;;;;;;5001474;28;21063;-93
2022/03/17 12:09:37;;;;;;;50.13;28.73;;;;;;;;;;4999235;28;20457;-91
2022/03/17 12:12:17;;;;;;;39.80;29.47;;;10.70;99.90;;;;;;4997824;28;20473;-92
2022/03/17 12:14:50;;;;;;;42.17;30.20;;;10.70;99.90;;;;;;4999422;28;20855;-92
2022/03/17 12:17:22;;;;;;;39.90;29.90;;;10.00;99.90;;;;;;4999689;28;20468;-89
2022/03/17 12:20:04;;;;;;;49.90;32.50;;;10.60;99.90;;;;;;4999356;28;20449;-89
2022/03/17 12:22:39;;;;;;;46.07;31.27;;;11.00;99.90;;;;;;4997943;28;20465;-90
2022/03/17 12:25:17;;;;;;;39.73;28.20;;;10.70;99.90;;;;;;4997252;28;20854;-91
2022/03/17 12:27:45;;;;;;;46.40;33.93;;;10.50;99.90;;;;;;4997671;28;20444;-90
2022/03/17 12:30:14;;;;;;;46.33;31.50;;;10.40;99.90;;;;;;4962383;28;20934;-90
2022/03/17 12:32:46;;;;;;;52.10;34.50;;;10.70;99.90;;;;;;4998570;28;20495;-91
2022/03/17 12:35:14;;;;;;;48.13;34.97;;;;;;;;;;4998878;28;20936;-91
2022/03/17 12:37:43;;;;;;;44.27;32.77;;;10.70;99.90;;;;;;4998740;28;20823;-88
2022/03/17 12:40:15;;;;;;;47.90;33.87;;;10.70;99.90;;;;;;5001722;28;20904;-94
2022/03/17 12:42:44;;;;;;;47.50;31.53;;;10.80;99.90;;;;;;4998110;28;20963;-90
2022/03/17 12:45:12;;;;;;;54.07;36.23;;;10.50;99.90;;;;;;4995877;28;20492;-90
2022/03/17 12:47:41;;;;;;;56.30;37.07;;;10.50;99.90;;;;;;4999980;28;21011;-90
2022/03/17 12:50:13;;;;;;;52.83;36.20;;;10.40;99.90;;;;;;5002345;28;20463;-90
2022/03/17 12:52:43;;;;;;;51.77;35.97;;;10.60;99.90;;;;;;5001722;28;20481;-94
2022/03/17 12:55:11;;;;;;;46.53;34.50;;;;;;;;;;5007212;28;20516;-93
2022/03/17 12:57:39;;;;;;;49.50;35.33;;;;;;;;;;5007987;28;20524;-94
2022/03/17 13:00:10;;;;;;;50.07;35.50;;;10.60;99.90;;;;;;5013907;28;20473;-94
2022/03/17 13:02:37;;;;;;;50.57;35.80;;;;;;;;;;5001551;28;20469;-92
2022/03/17 13:06:53;;;;;;;62.30;40.03;;;10.50;99.90;;;;;;4991065;28;20836;-93
2022/03/17 13:07:54;;;;;;;59.60;39.23;;;;;;;;;;4989101;28;20465;-92
2022/03/17 13:10:27;;;;;;;53.47;36.77;;;10.60;99.90;;;;;;4998209;28;20470;-93
2022/03/17 13:15:53;;;;;;;55.00;36.50;;;;;;;;;;4993639;28;20463;-92
2022/03/17 13:18:21;;;;;;;51.33;36.17;;;;;;;;;;4999606;28;20472;-94
2022/03/17 13:20:53;;;;;;;53.83;37.27;;;;;;;;;;4998417;28;20604;-93
2022/03/17 13:23:43;;;;;;;47.50;34.23;;;10.60;99.90;;;;;;4989745;28;20542;-92
2022/03/17 13:26:10;;;;;;;56.67;46.13;;;;;;;;;;4972436;28;20466;-93
2022/03/17 13:28:38;;;;;;;51.33;40.50;;;;;;;;;;4982047;28;20509;-94
2022/03/17 13:31:05;;;;;;;48.07;34.60;;;;;;;;;;4978317;28;20993;-93
2022/03/17 13:33:33;;;;;;;43.73;32.03;;;10.50;99.90;;;;;;4999600;28;20482;-94
2022/03/17 13:36:01;;;;;;;48.43;34.37;;;10.50;99.90;;;;;;5009447;28;20576;-94
2022/03/17 13:38:32;;;;;;;47.90;32.60;;;10.50;99.90;;;;;;5003991;28;20580;-92
2022/03/17 13:41:23;;;;;;;47.80;35.67;;;10.30;99.90;;;;;;5005391;28;20801;-91
2022/03/17 13:44:03;;;;;;;47.53;33.87;;;10.30;99.90;;;;;;5002535;28;20433;-93
2022/03/17 13:46:39;;;;;;;46.23;31.20;;;10.40;99.90;;;;;;4999369;28;20536;-95
2022/03/17 13:49:16;;;;;;;49.50;33.70;;;;;;;;;;5007859;28;20464;-94
2022/03/17 13:51:53;;;;;;;49.77;33.50;;;;;;;;;;4997334;28;20544;-92
2022/03/17 13:54:21;;;;;;;47.63;34.70;;;;;;;;;;4997472;28;20518;-94
2022/03/17 13:56:51;;;;;;;40.53;30.53;;;;;;;;;;4998806;28;20454;-93
2022/03/17 13:59:24;;;;;;;46.00;32.90;;;10.40;99.90;;;;;;5000046;28;20505;-92
2022/03/17 14:02:13;;;;;;;39.17;30.50;;;10.30;99.90;;;;;;4996165;28;20438;-94
2022/03/17 14:04:53;;;;;;;37.40;26.90;;;10.20;99.90;;;;;;4998845;28;21024;-93
2022/03/17 14:07:22;;;;;;;39.60;28.90;;;;;;;;;;4999932;28;20457;-91
2022/03/17 14:09:49;;;;;;;42.43;30.70;;;;;;;;;;5007136;28;20790;-93
2022/03/17 14:12:18;;;;;;;39.70;29.70;;;;;;;;;;4999391;28;20450;-93
2022/03/17 14:14:46;;;;;;;45.93;31.17;;;;;;;;;;5000118;28;20468;-94